createdAt,value
2023-04-24T00:01:08.930Z,4.40
2023-04-24T00:03:36.371Z,3.73
2023-04-24T00:06:03.912Z,5.43
2023-04-24T00:08:30.932Z,6.03
2023-04-24T00:10:57.701Z,5.20
2023-04-24T00:13:25.009Z,4.27
2023-04-24T00:15:51.727Z,4.00
2023-04-24T00:18:18.728Z,3.20
2023-04-24T00:20:45.946Z,3.60
2023-04-24T00:23:12.731Z,4.23
2023-04-24T00:25:39.750Z,5.37
2023-04-24T00:28:06.513Z,5.60
2023-04-24T00:30:33.329Z,6.70
2023-04-24T00:33:00.224Z,6.27
2023-04-24T00:35:27.038Z,6.10
2023-04-24T00:37:53.821Z,6.33
2023-04-24T00:40:20.797Z,6.50
2023-04-24T00:42:47.702Z,6.43
2023-04-24T00:45:14.717Z,7.40
2023-04-24T00:47:42.862Z,5.63
2023-04-24T00:50:10.050Z,5.70
2023-04-24T00:52:37.126Z,6.27
2023-04-24T00:55:04.312Z,6.13
2023-04-24T00:57:31.663Z,6.57
2023-04-24T00:59:58.820Z,5.87
2023-04-24T01:02:26.117Z,7.30
2023-04-24T01:04:53.038Z,6.90
2023-04-24T01:07:22.945Z,6.50
2023-04-24T01:09:52.197Z,7.07
2023-04-24T01:12:19.668Z,5.63
2023-04-24T01:14:46.938Z,5.07
2023-04-24T01:17:13.670Z,3.63
2023-04-24T01:19:41.617Z,4.80
2023-04-24T01:22:16.307Z,4.57
2023-04-24T01:24:44.032Z,4.63
2023-04-24T01:27:11.405Z,5.07
2023-04-24T01:29:38.376Z,5.73
2023-04-24T01:32:06.024Z,6.00
2023-04-24T01:34:32.977Z,6.63
2023-04-24T01:36:59.873Z,6.13
2023-04-24T01:39:29.011Z,6.30
2023-04-24T01:41:56.815Z,4.90
2023-04-24T01:44:24.458Z,5.77
2023-04-24T01:46:51.819Z,6.90
2023-04-24T01:49:18.958Z,5.00
2023-04-24T01:51:45.962Z,5.87
2023-04-24T01:54:13.196Z,5.63
2023-04-24T01:56:43.873Z,5.20
2023-04-24T01:59:11.911Z,4.37
2023-04-24T02:01:39.896Z,4.27
2023-04-24T02:04:08.467Z,3.63
2023-04-24T02:06:35.580Z,3.70
2023-04-24T02:09:02.552Z,3.40
2023-04-24T02:11:29.320Z,4.50
2023-04-24T02:13:56.144Z,4.57
2023-04-24T02:16:22.944Z,4.90
2023-04-24T02:18:49.767Z,4.93
2023-04-24T02:21:17.079Z,5.30
2023-04-24T02:23:43.800Z,5.67
2023-04-24T02:26:10.975Z,5.20
2023-04-24T02:28:37.766Z,5.00
2023-04-24T02:31:04.555Z,5.23
2023-04-24T02:33:31.408Z,5.00
2023-04-24T02:35:58.193Z,5.27
2023-04-24T02:38:24.989Z,5.27
2023-04-24T02:40:51.709Z,5.20
2023-04-24T02:43:18.408Z,5.30
2023-04-24T02:45:45.246Z,5.03
2023-04-24T02:48:12.084Z,4.70
2023-04-24T02:50:39.687Z,4.73
2023-04-24T02:53:06.407Z,4.70
2023-04-24T02:55:33.284Z,4.90
2023-04-24T02:58:00.049Z,4.77
2023-04-24T03:00:26.815Z,5.67
2023-04-24T03:02:54.533Z,5.40
2023-04-24T03:05:21.422Z,4.40
2023-04-24T03:07:48.629Z,4.47
2023-04-24T03:10:15.464Z,5.53
2023-04-24T03:12:42.227Z,5.60
2023-04-24T03:15:09.610Z,6.03
2023-04-24T03:17:36.562Z,5.80
2023-04-24T03:20:03.705Z,7.20
2023-04-24T03:22:30.579Z,6.53
2023-04-24T03:24:57.788Z,7.50
2023-04-24T03:27:24.751Z,7.80
2023-04-24T03:29:56.593Z,6.93
2023-04-24T03:32:23.895Z,8.30
2023-04-24T03:34:51.378Z,8.20
2023-04-24T03:37:18.135Z,7.23
2023-04-24T03:39:45.336Z,8.33
2023-04-24T03:42:12.222Z,6.40
2023-04-24T03:44:39.024Z,7.57
2023-04-24T03:47:05.921Z,8.63
2023-04-24T03:49:32.933Z,8.10
2023-04-24T03:51:59.664Z,8.13
2023-04-24T03:54:26.439Z,8.10
2023-04-24T03:56:53.219Z,9.53
2023-04-24T03:59:20.139Z,7.87
2023-04-24T04:01:47.479Z,8.53
2023-04-24T04:04:14.346Z,7.13
2023-04-24T04:06:41.258Z,7.53
2023-04-24T04:09:08.469Z,6.93
2023-04-24T04:11:36.516Z,8.73
2023-04-24T04:14:03.516Z,7.40
2023-04-24T04:16:30.362Z,8.10
2023-04-24T04:18:57.149Z,7.70
2023-04-24T04:21:23.987Z,7.70
2023-04-24T04:23:50.687Z,7.33
2023-04-24T04:26:17.376Z,5.80
2023-04-24T04:28:45.921Z,6.40
2023-04-24T04:31:12.553Z,6.53
2023-04-24T04:33:40.528Z,6.90
2023-04-24T04:36:07.393Z,6.60
2023-04-24T04:38:34.757Z,5.37
2023-04-24T04:41:01.656Z,5.80
2023-04-24T04:43:28.366Z,6.70
2023-04-24T04:45:55.962Z,5.17
2023-04-24T04:48:23.375Z,5.50
2023-04-24T04:50:50.114Z,6.73
2023-04-24T04:53:16.967Z,6.20
2023-04-24T04:55:43.734Z,6.47
2023-04-24T04:58:10.636Z,6.00
2023-04-24T05:00:38.696Z,6.13
2023-04-24T05:03:19.090Z,5.03
2023-04-24T05:05:47.254Z,5.53
2023-04-24T05:08:25.850Z,3.80
2023-04-24T05:10:54.243Z,1.90
2023-04-24T05:13:25.425Z,1.73
2023-04-24T05:15:59.299Z,0.50
2023-04-24T05:18:25.992Z,0.67
2023-04-24T05:20:52.779Z,0.80
2023-04-24T05:23:19.488Z,0.80
2023-04-24T05:25:47.334Z,0.60
2023-04-24T05:28:14.062Z,0.50
2023-04-24T05:30:40.803Z,0.40
2023-04-24T05:33:07.836Z,0.40
2023-04-24T05:35:34.634Z,0.37
2023-04-24T05:38:01.326Z,0.70
2023-04-24T05:40:28.146Z,0.60
2023-04-24T05:42:54.905Z,0.40
2023-04-24T05:45:21.618Z,0.40
2023-04-24T05:47:48.404Z,0.30
2023-04-24T05:50:15.227Z,0.40
2023-04-24T05:52:41.926Z,0.30
2023-04-24T05:55:09.035Z,0.40
2023-04-24T05:57:35.829Z,0.50
2023-04-24T06:00:02.986Z,0.20
2023-04-24T06:02:33.672Z,0.43
2023-04-24T06:05:00.923Z,0.53
2023-04-24T06:07:27.729Z,0.40
2023-04-24T06:09:54.496Z,0.50
2023-04-24T06:12:21.289Z,0.30
2023-04-24T06:14:48.003Z,0.20
2023-04-24T06:17:15.142Z,0.40
2023-04-24T06:19:42.083Z,0.30
2023-04-24T06:22:10.910Z,0.30
2023-04-24T06:24:37.913Z,0.30
2023-04-24T06:27:04.833Z,0.30
2023-04-24T06:29:31.522Z,0.30
2023-04-24T06:31:58.502Z,0.20
2023-04-24T06:34:25.312Z,0.30
2023-04-24T06:36:52.255Z,0.37
2023-04-24T06:39:18.953Z,0.20
2023-04-24T06:41:45.647Z,0.20
2023-04-24T06:44:12.405Z,0.30
2023-04-24T06:46:41.568Z,0.27
2023-04-24T06:49:08.646Z,0.20
2023-04-24T06:51:35.534Z,0.20
2023-04-24T06:54:02.999Z,0.20
2023-04-24T06:56:30.577Z,0.20
2023-04-24T06:58:57.416Z,0.30
2023-04-24T07:01:24.144Z,0.40
2023-04-24T07:03:51.151Z,0.40
2023-04-24T07:06:19.825Z,0.20
2023-04-24T07:08:47.728Z,0.40
2023-04-24T07:11:14.439Z,0.30
2023-04-24T07:13:43.075Z,0.20
2023-04-24T07:16:10.799Z,0.20
2023-04-24T07:18:38.470Z,0.20
2023-04-24T07:21:05.274Z,0.20
2023-04-24T07:23:32.455Z,0.27
2023-04-24T07:25:59.352Z,0.20
2023-04-24T07:28:26.599Z,0.20
2023-04-24T07:30:55.255Z,0.20
2023-04-24T07:33:22.254Z,0.23
2023-04-24T07:35:49.248Z,0.30
2023-04-24T07:38:16.081Z,0.30
2023-04-24T07:40:43.176Z,0.30
2023-04-24T07:43:09.908Z,0.20
2023-04-24T07:45:38.663Z,0.20
2023-04-24T07:48:05.815Z,0.20
2023-04-24T07:50:32.758Z,0.43
2023-04-24T07:52:59.538Z,0.20
2023-04-24T07:55:28.078Z,0.20
2023-04-24T07:57:55.427Z,0.30
2023-04-24T08:00:22.304Z,0.20
2023-04-24T08:02:49.513Z,0.20
2023-04-24T08:05:16.768Z,0.20
2023-04-24T08:07:43.785Z,0.20
2023-04-24T08:10:14.422Z,0.20
2023-04-24T08:12:42.333Z,0.20
2023-04-24T08:15:09.638Z,0.43
2023-04-24T08:17:36.892Z,0.20
2023-04-24T08:20:06.295Z,0.30
2023-04-24T08:22:33.153Z,0.20
2023-04-24T08:25:01.049Z,0.20
2023-04-24T08:27:27.992Z,0.40
2023-04-24T08:29:55.717Z,0.20
2023-04-24T08:32:22.568Z,0.20
2023-04-24T08:34:49.926Z,0.47
2023-04-24T08:37:16.865Z,0.30
2023-04-24T08:39:44.095Z,0.40
2023-04-24T08:42:12.592Z,0.30
2023-04-24T08:44:39.387Z,0.33
2023-04-24T08:47:06.443Z,0.30
2023-04-24T08:49:33.380Z,0.30
2023-04-24T08:52:00.892Z,0.20
2023-04-24T08:54:27.912Z,0.23
2023-04-24T08:56:55.844Z,0.30
2023-04-24T08:59:23.382Z,0.40
2023-04-24T09:01:51.466Z,0.23
2023-04-24T09:04:21.211Z,0.33
2023-04-24T09:06:49.810Z,0.40
2023-04-24T09:09:18.517Z,0.20
2023-04-24T09:11:45.874Z,0.30
2023-04-24T09:14:12.786Z,0.20
2023-04-24T09:16:39.633Z,0.30
2023-04-24T09:19:06.352Z,0.30
2023-04-24T09:21:34.757Z,0.30
2023-04-24T09:24:03.963Z,0.20
2023-04-24T09:26:35.240Z,0.30
2023-04-24T09:29:01.985Z,0.40
2023-04-24T09:31:30.858Z,0.20
2023-04-24T09:34:02.308Z,0.27
2023-04-24T09:36:38.234Z,0.50
2023-04-24T09:39:09.489Z,0.20
2023-04-24T09:41:36.641Z,0.30
2023-04-24T09:44:15.284Z,0.40
2023-04-24T09:46:47.164Z,0.27
2023-04-24T09:49:16.552Z,0.50
2023-04-24T09:51:43.822Z,0.20
2023-04-24T09:54:18.498Z,0.30
2023-04-24T09:56:46.694Z,0.20
2023-04-24T09:59:15.052Z,0.20
2023-04-24T10:01:43.780Z,0.20
2023-04-24T10:04:20.647Z,0.27
2023-04-24T10:06:50.114Z,0.20
2023-04-24T10:09:18.098Z,0.23
2023-04-24T10:11:48.743Z,0.20
2023-04-24T10:14:17.269Z,0.30
2023-04-24T10:16:45.109Z,0.20
2023-04-24T10:19:14.228Z,0.20
2023-04-24T10:21:47.694Z,0.20
2023-04-24T10:24:16.825Z,0.20
2023-04-24T10:26:44.532Z,0.40
2023-04-24T10:29:16.633Z,0.40
2023-04-24T10:31:46.619Z,0.27
2023-04-24T10:34:14.034Z,0.40
2023-04-24T10:36:43.135Z,0.60
2023-04-24T10:39:13.477Z,0.20
2023-04-24T10:41:40.897Z,0.20
2023-04-24T10:44:09.143Z,0.50
2023-04-24T10:46:36.195Z,0.20
2023-04-24T10:49:12.469Z,0.30
2023-04-24T10:51:55.521Z,0.20
2023-04-24T10:54:35.066Z,0.30
2023-04-24T10:57:23.443Z,0.20
2023-04-24T10:59:52.652Z,0.40
2023-04-24T11:02:20.045Z,0.20
2023-04-24T11:04:47.680Z,0.50
2023-04-24T11:07:14.672Z,0.20
2023-04-24T11:09:44.375Z,0.53
2023-04-24T11:12:12.641Z,0.20
2023-04-24T11:15:11.980Z,0.37
2023-04-24T11:17:41.487Z,0.20
2023-04-24T11:20:26.122Z,0.30
2023-04-24T11:22:56.639Z,0.30
2023-04-24T11:25:23.973Z,0.30
2023-04-24T11:27:51.277Z,0.30
2023-04-24T11:30:21.742Z,0.20
2023-04-24T11:32:50.992Z,0.20
2023-04-24T11:35:22.765Z,0.20
2023-04-24T11:40:23.882Z,0.40
2023-04-24T11:42:52.168Z,0.20
2023-04-24T11:45:22.770Z,0.20
2023-04-24T11:47:50.429Z,0.20
2023-04-24T11:50:19.115Z,0.20
2023-04-24T11:52:47.973Z,0.30
2023-04-24T11:55:20.841Z,0.20
2023-04-24T11:57:52.414Z,0.30
2023-04-24T12:00:21.677Z,0.20
2023-04-24T12:02:49.279Z,0.20
2023-04-24T12:05:29.031Z,0.20
2023-04-24T12:07:55.979Z,0.30
2023-04-24T12:10:24.721Z,0.33
2023-04-24T12:12:52.787Z,1.10
2023-04-24T12:15:23.089Z,1.23
2023-04-24T12:17:52.815Z,1.17
2023-04-24T12:20:26.056Z,0.73
2023-04-24T12:22:55.775Z,0.30
2023-04-24T12:25:38.666Z,0.30
2023-04-24T12:28:05.562Z,0.30
2023-04-24T12:30:40.627Z,0.30
2023-04-24T12:33:07.564Z,0.30
2023-04-24T12:35:35.111Z,0.30
2023-04-24T12:38:14.067Z,0.40
2023-04-24T12:40:42.793Z,0.20
2023-04-24T12:43:17.522Z,0.37
2023-04-24T12:45:45.279Z,0.20
2023-04-24T12:48:12.370Z,0.27
2023-04-24T12:50:39.669Z,0.20
2023-04-24T12:53:07.679Z,0.30
2023-04-24T12:55:34.559Z,0.30
2023-04-24T12:58:01.649Z,0.27
2023-04-24T13:00:28.430Z,0.37
2023-04-24T13:02:55.669Z,0.30
2023-04-24T13:05:24.782Z,0.73
2023-04-24T13:07:52.005Z,0.30
2023-04-24T13:10:18.791Z,0.50
2023-04-24T13:12:47.234Z,0.87
2023-04-24T13:15:14.559Z,0.70
2023-04-24T13:17:41.352Z,0.40
2023-04-24T13:20:08.667Z,0.80
2023-04-24T13:22:35.522Z,0.53
2023-04-24T13:25:02.402Z,0.40
2023-04-24T13:27:29.165Z,0.20
2023-04-24T13:29:55.939Z,0.30
2023-04-24T13:32:22.799Z,0.30
2023-04-24T13:34:49.720Z,0.60
2023-04-24T13:37:16.399Z,0.50
2023-04-24T13:39:43.188Z,0.37
2023-04-24T13:42:10.136Z,0.40
2023-04-24T13:44:36.922Z,0.30
2023-04-24T13:47:03.807Z,0.40
2023-04-24T13:49:30.637Z,0.37
2023-04-24T13:51:58.170Z,0.30
2023-04-24T13:54:27.020Z,0.27
2023-04-24T13:56:54.068Z,0.47
2023-04-24T13:59:22.464Z,0.20
2023-04-24T14:01:49.581Z,0.40
2023-04-24T14:04:16.816Z,0.30
2023-04-24T14:06:44.273Z,0.40
2023-04-24T14:09:11.223Z,0.47
2023-04-24T14:11:38.120Z,0.30
2023-04-24T14:14:05.164Z,0.60
2023-04-24T14:16:32.673Z,0.50
2023-04-24T14:18:59.474Z,0.43
2023-04-24T14:21:26.471Z,0.40
2023-04-24T14:23:53.306Z,0.50
2023-04-24T14:26:20.976Z,0.83
2023-04-24T14:28:47.724Z,0.53
2023-04-24T14:31:14.599Z,0.47
2023-04-24T14:33:41.351Z,0.70
2023-04-24T14:36:08.270Z,0.50
2023-04-24T14:38:35.996Z,0.60
2023-04-24T14:41:10.587Z,0.33
2023-04-24T14:43:39.926Z,0.70
2023-04-24T14:46:07.014Z,0.47
2023-04-24T14:48:33.675Z,0.40
2023-04-24T14:51:00.394Z,0.60
2023-04-24T14:53:27.170Z,0.60
2023-04-24T14:55:54.813Z,0.90
2023-04-24T14:58:21.632Z,0.83
2023-04-24T15:00:51.055Z,0.43
2023-04-24T15:03:19.034Z,0.47
2023-04-24T15:05:46.097Z,0.80
2023-04-24T15:08:12.884Z,0.70
2023-04-24T15:10:39.656Z,1.27
2023-04-24T15:13:06.458Z,0.70
2023-04-24T15:15:33.218Z,0.60
2023-04-24T15:17:59.971Z,0.40
2023-04-24T15:20:26.676Z,0.70
2023-04-24T15:22:53.648Z,0.60
2023-04-24T15:25:20.733Z,0.30
2023-04-24T15:27:47.471Z,0.60
2023-04-24T15:30:14.939Z,0.60
2023-04-24T15:32:41.925Z,0.40
2023-04-24T15:35:10.422Z,0.60
2023-04-24T15:37:38.561Z,0.50
2023-04-24T15:40:08.116Z,0.37
2023-04-24T15:42:35.935Z,0.30
2023-04-24T15:45:02.916Z,0.40
2023-04-24T15:47:29.673Z,0.30
2023-04-24T15:49:56.533Z,0.33
2023-04-24T15:52:23.371Z,0.30
2023-04-24T15:54:50.399Z,0.40
2023-04-24T15:57:17.233Z,0.40
2023-04-24T15:59:44.791Z,0.50
2023-04-24T16:02:20.996Z,0.43
2023-04-24T16:04:49.136Z,0.40
2023-04-24T16:07:18.297Z,0.40
2023-04-24T16:09:45.378Z,0.60
2023-04-24T16:12:12.643Z,0.70
2023-04-24T16:14:39.429Z,0.80
2023-04-24T16:17:06.868Z,0.93
2023-04-24T16:19:36.502Z,1.00
2023-04-24T16:22:04.452Z,0.60
2023-04-24T16:24:31.400Z,0.60
2023-04-24T16:26:58.210Z,0.53
2023-04-24T16:29:25.041Z,0.60
2023-04-24T16:31:52.513Z,0.70
2023-04-24T16:34:19.358Z,0.40
2023-04-24T16:36:46.322Z,0.47
2023-04-24T16:39:13.738Z,0.83
2023-04-24T16:41:40.592Z,0.90
2023-04-24T16:44:07.746Z,0.63
2023-04-24T16:46:34.914Z,2.10
2023-04-24T16:49:01.744Z,1.57
2023-04-24T16:51:29.084Z,1.30
2023-04-24T16:53:56.068Z,0.93
2023-04-24T16:56:22.792Z,4.47
2023-04-24T16:58:50.146Z,3.00
2023-04-24T17:01:17.247Z,5.33
2023-04-24T17:03:44.347Z,2.90
2023-04-24T17:06:11.265Z,0.50
2023-04-24T17:08:40.260Z,0.40
2023-04-24T17:11:06.901Z,0.50
2023-04-24T17:13:33.822Z,0.73
2023-04-24T17:16:00.812Z,5.20
2023-04-24T17:18:27.646Z,1.27
2023-04-24T17:20:54.416Z,0.60
2023-04-24T17:23:21.623Z,0.57
2023-04-24T17:25:48.918Z,0.60
2023-04-24T17:28:25.444Z,0.60
2023-04-24T17:30:52.360Z,0.40
2023-04-24T17:33:19.170Z,0.90
2023-04-24T17:35:46.074Z,0.60
2023-04-24T17:38:12.992Z,1.90
2023-04-24T17:40:40.435Z,2.50
2023-04-24T17:43:07.220Z,1.50
2023-04-24T17:45:33.858Z,1.33
2023-04-24T17:48:00.603Z,0.47
2023-04-24T17:50:27.555Z,0.40
2023-04-24T17:52:54.172Z,0.37
2023-04-24T17:55:20.953Z,1.47
2023-04-24T17:57:47.818Z,0.93
2023-04-24T18:00:14.908Z,0.67
2023-04-24T18:02:41.774Z,1.10
2023-04-24T18:05:08.609Z,1.07
2023-04-24T18:07:35.382Z,0.87
2023-04-24T18:10:02.158Z,0.40
2023-04-24T18:12:28.940Z,0.57
2023-04-24T18:15:06.703Z,0.40
2023-04-24T18:17:40.235Z,0.63
2023-04-24T18:20:07.653Z,0.50
2023-04-24T18:22:34.391Z,0.73
2023-04-24T18:25:01.409Z,0.60
2023-04-24T18:27:31.146Z,0.80
2023-04-24T18:30:00.821Z,0.50
2023-04-24T18:32:27.745Z,0.50
2023-04-24T18:34:54.491Z,0.47
2023-04-24T18:37:21.186Z,0.40
2023-04-24T18:39:48.505Z,0.53
2023-04-24T18:42:15.525Z,0.70
2023-04-24T18:44:42.871Z,0.70
2023-04-24T18:47:10.597Z,0.50
2023-04-24T18:49:37.642Z,0.67
2023-04-24T18:52:04.478Z,1.13
2023-04-24T18:54:31.702Z,0.70
2023-04-24T18:56:59.710Z,1.00
2023-04-24T18:59:27.752Z,0.60
2023-04-24T19:01:54.586Z,0.70
2023-04-24T19:04:22.089Z,0.90
2023-04-24T19:06:49.055Z,0.97
2023-04-24T19:09:15.836Z,0.90
2023-04-24T19:11:43.684Z,1.40
2023-04-24T19:14:11.214Z,1.30
2023-04-24T19:16:37.936Z,1.00
2023-04-24T19:19:05.711Z,1.20
2023-04-24T19:21:33.516Z,1.27
2023-04-24T19:24:01.139Z,2.43
2023-04-24T19:26:31.551Z,1.43
2023-04-24T19:28:59.049Z,1.30
2023-04-24T19:31:26.446Z,1.20
2023-04-24T19:33:53.383Z,1.03
2023-04-24T19:36:20.352Z,1.53
2023-04-24T19:38:47.517Z,1.47
2023-04-24T19:41:14.314Z,1.10
2023-04-24T19:43:40.885Z,1.07
2023-04-24T19:46:07.709Z,1.30
2023-04-24T19:48:34.424Z,1.37
2023-04-24T19:51:01.716Z,0.87
2023-04-24T19:53:29.442Z,1.00
2023-04-24T19:55:56.482Z,0.90
2023-04-24T19:58:23.160Z,1.03
2023-04-24T20:00:49.791Z,0.60
2023-04-24T20:03:31.391Z,1.00
2023-04-24T20:28:41.934Z,1.90
2023-04-24T20:31:08.624Z,1.20
2023-04-24T20:33:38.036Z,1.43
2023-04-24T20:36:04.869Z,1.93
2023-04-24T20:38:31.494Z,1.10
2023-04-24T20:40:58.526Z,1.33
2023-04-24T20:43:28.722Z,1.00
2023-04-24T20:45:57.928Z,1.30
2023-04-24T20:48:25.044Z,1.17
2023-04-24T20:50:53.893Z,1.00
2023-04-24T20:53:21.152Z,1.43
2023-04-24T20:55:48.136Z,1.00
2023-04-24T20:58:16.032Z,1.57
2023-04-24T21:00:42.670Z,1.10
2023-04-24T21:03:14.516Z,1.67
2023-04-24T21:05:41.240Z,0.90
2023-04-24T21:08:08.061Z,1.43
2023-04-24T21:10:34.662Z,0.70
2023-04-24T21:13:01.395Z,1.17
2023-04-24T21:15:28.298Z,1.00
2023-04-24T21:17:55.238Z,1.13
2023-04-24T21:20:21.882Z,1.70
2023-04-24T21:22:48.513Z,1.90
2023-04-24T21:25:15.127Z,1.40
2023-04-24T21:27:43.454Z,1.53
2023-04-24T21:30:10.480Z,1.20
2023-04-24T21:32:37.297Z,1.13
2023-04-24T21:35:04.030Z,1.70
2023-04-24T21:37:32.868Z,1.47
2023-04-24T21:39:59.634Z,1.80
2023-04-24T21:42:26.302Z,1.43
2023-04-24T21:44:52.900Z,1.30
2023-04-24T21:47:19.476Z,1.37
2023-04-24T21:49:46.056Z,1.53
2023-04-24T21:52:12.598Z,1.17
2023-04-24T21:54:39.224Z,0.87
2023-04-24T21:57:05.914Z,1.20
2023-04-24T21:59:33.785Z,1.00
2023-04-24T22:02:00.387Z,1.20
2023-04-24T22:04:27.559Z,1.40
2023-04-24T22:06:54.401Z,1.20
2023-04-24T22:09:21.599Z,0.93
2023-04-24T22:11:48.728Z,1.40
2023-04-24T22:14:15.720Z,1.10
2023-04-24T22:16:42.330Z,1.30
2023-04-24T22:19:09.410Z,1.40
2023-04-24T22:21:36.388Z,1.27
2023-04-24T22:24:03.179Z,1.27
2023-04-24T22:26:29.782Z,1.00
2023-04-24T22:28:56.578Z,1.00
2023-04-24T22:31:23.881Z,1.00
2023-04-24T22:33:51.686Z,0.93
2023-04-24T22:36:18.577Z,1.00
2023-04-24T22:38:45.239Z,0.87
2023-04-24T22:41:11.949Z,1.10
2023-04-24T22:43:38.761Z,0.83
2023-04-24T22:46:05.584Z,1.37
2023-04-24T22:48:32.963Z,0.80
2023-04-24T22:50:59.743Z,1.07
2023-04-24T22:53:27.709Z,1.07
2023-04-24T22:55:58.275Z,0.80
2023-04-24T22:58:25.248Z,1.30
2023-04-24T23:00:52.196Z,1.33
2023-04-24T23:03:19.023Z,0.60
2023-04-24T23:05:46.030Z,1.07
2023-04-24T23:08:12.798Z,1.83
2023-04-24T23:10:39.604Z,1.40
2023-04-24T23:13:06.486Z,0.80
2023-04-24T23:15:34.744Z,1.10
2023-04-24T23:18:01.661Z,1.20
2023-04-24T23:20:28.513Z,1.17
2023-04-24T23:22:55.338Z,1.50
2023-04-24T23:25:22.152Z,0.97
2023-04-24T23:27:48.888Z,0.67
2023-04-24T23:30:15.587Z,0.70
2023-04-24T23:32:44.303Z,1.13
2023-04-24T23:35:11.761Z,0.90
2023-04-24T23:37:38.699Z,0.97
2023-04-24T23:40:11.291Z,0.70
2023-04-24T23:42:38.266Z,1.10
2023-04-24T23:45:05.587Z,0.73
2023-04-24T23:47:32.368Z,0.63
2023-04-24T23:49:59.159Z,0.90
2023-04-24T23:52:25.912Z,1.07
2023-04-24T23:54:52.864Z,0.83
2023-04-24T23:57:20.008Z,1.20
2023-04-24T23:59:46.690Z,1.17
